Time;durP1;ratioP1;P1;durP2;ratioP2;P2;SDS_P1;SDS_P2;PMS_P1;PMS_P2;Temp;Humidity;BMP_temperature;BMP_pressure;BME280_temperature;BME280_humidity;BME280_pressure;Samples;Min_cycle;Max_cycle;Signal;HPM_P1;HPM_P2
2022/11/12 00:02:17;;;;;;;27.70;20.60;;;;;;;18.10;49.38;102518.86;101754;1332;61304;-82
2022/11/12 00:04:43;;;;;;;29.80;20.80;;;;;;;18.10;49.24;102512.83;101907;1330;61339;-82
2022/11/12 00:07:08;;;;;;;30.90;21.60;;;;;;;18.10;49.42;102515.50;101894;1328;61307;-82
2022/11/12 00:09:34;;;;;;;30.00;21.00;;;;;;;18.09;49.32;102512.64;101875;1332;61331;-82
2022/11/12 00:11:59;;;;;;;30.80;21.40;;;;;;;18.09;49.29;102511.94;101975;1333;61339;-81
2022/11/12 00:14:25;;;;;;;31.30;21.90;;;;;;;18.09;49.28;102511.61;101922;1329;61301;-83
2022/11/12 00:16:50;;;;;;;31.00;21.60;;;;;;;18.09;49.29;102511.59;101891;1329;61316;-82
2022/11/12 00:19:16;;;;;;;31.30;21.10;;;;;;;18.09;49.37;102508.02;101908;1334;62500;-83
2022/11/12 00:21:41;;;;;;;32.70;22.10;;;;;;;18.09;49.45;102507.32;101894;1335;61319;-82
2022/11/12 00:24:07;;;;;;;28.80;21.30;;;;;;;18.08;49.30;102506.63;101880;1330;61361;-82
2022/11/12 00:26:32;;;;;;;30.50;21.10;;;;;;;18.08;49.33;102505.20;101924;1334;61300;-82
2022/11/12 00:28:58;;;;;;;33.00;23.10;;;;;;;18.09;49.26;102507.15;101917;1329;61305;-82
2022/11/12 00:31:23;;;;;;;30.60;21.70;;;;;;;18.08;49.34;102506.27;101906;1332;61922;-82
2022/11/12 00:33:50;;;;;;;30.30;20.70;;;;;;;18.08;49.32;102501.65;101921;1332;61326;-81
2022/11/12 00:36:16;;;;;;;29.90;20.80;;;;;;;18.08;49.26;102504.14;101909;1328;61352;-81
2022/11/12 00:38:41;;;;;;;32.40;21.50;;;;;;;18.07;49.26;102505.41;101933;1330;61383;-82
2022/11/12 00:41:07;;;;;;;29.50;20.90;;;;;;;18.08;49.18;102505.58;101942;1328;61276;-82
2022/11/12 00:43:32;;;;;;;28.90;21.00;;;;;;;18.07;49.19;102502.38;101904;1331;62525;-82
2022/11/12 00:45:58;;;;;;;29.80;21.00;;;;;;;18.07;49.21;102502.92;101912;1331;61312;-82
2022/11/12 00:48:23;;;;;;;31.00;22.10;;;;;;;18.07;49.22;102505.41;101902;1335;61406;-82
2022/11/12 00:50:49;;;;;;;31.30;22.30;;;;;;;18.07;49.29;102502.92;101853;1329;61341;-82
2022/11/12 00:53:14;;;;;;;30.40;21.80;;;;;;;18.07;49.22;102498.65;101939;1322;61331;-82
2022/11/12 00:55:40;;;;;;;30.90;20.60;;;;;;;18.07;49.20;102497.76;101897;1330;61300;-82
2022/11/12 00:58:05;;;;;;;29.60;20.20;;;;;;;18.07;49.14;102497.04;101909;1328;61358;-82
2022/11/12 01:00:31;;;;;;;30.90;20.80;;;;;;;18.07;49.17;102499.36;101920;1327;61294;-82
2022/11/12 01:02:56;;;;;;;28.60;21.70;;;;;;;18.07;49.22;102502.20;101894;1331;61336;-81
2022/11/12 01:05:22;;;;;;;29.60;21.10;;;;;;;18.07;49.17;102500.44;101961;1328;61338;-82
2022/11/12 01:07:48;;;;;;;30.30;20.80;;;;;;;18.07;49.12;102500.45;101896;1330;74450;-82
2022/11/12 01:10:13;;;;;;;29.30;20.20;;;;;;;18.06;49.10;102499.90;101910;1329;61294;-81
2022/11/12 01:12:39;;;;;;;30.20;21.70;;;;;;;18.06;49.08;102497.78;101910;1330;61377;-82
2022/11/12 01:15:06;;;;;;;31.60;21.50;;;;;;;18.06;49.19;102491.73;101866;1336;61891;-81
2022/11/12 01:17:31;;;;;;;28.40;19.90;;;;;;;18.06;49.14;102488.00;101906;1328;61296;-82
2022/11/12 01:19:57;;;;;;;29.30;20.60;;;;;;;18.05;49.09;102488.73;101894;1329;61389;-82
2022/11/12 01:22:22;;;;;;;28.00;20.30;;;;;;;18.05;49.08;102486.41;101917;1332;61385;-82
2022/11/12 01:24:48;;;;;;;29.30;20.70;;;;;;;18.05;49.00;102485.00;101939;1328;61356;-82
2022/11/12 01:27:13;;;;;;;27.20;20.50;;;;;;;18.05;48.88;102485.70;101843;1331;61828;-82
2022/11/12 01:29:40;;;;;;;28.60;20.80;;;;;;;18.05;49.01;102485.54;101904;1328;61390;-82
2022/11/12 01:32:05;;;;;;;27.30;20.40;;;;;;;18.05;48.99;102486.07;101849;1330;61329;-81
2022/11/12 01:34:31;;;;;;;27.90;20.20;;;;;;;18.04;48.96;102490.36;101889;1328;61303;-81
2022/11/12 01:36:56;;;;;;;28.30;19.30;;;;;;;18.04;48.87;102490.19;101937;1333;61522;-82
2022/11/12 01:39:22;;;;;;;28.00;19.70;;;;;;;18.05;48.95;102485.91;101899;1331;72658;-83
2022/11/12 01:41:48;;;;;;;29.20;20.20;;;;;;;18.05;48.79;102483.23;101880;1331;61266;-82
2022/11/12 01:44:18;;;;;;;27.70;19.40;;;;;;;18.05;48.90;102483.77;101930;1332;61429;-82
2022/11/12 01:47:14;;;;;;;28.00;20.10;;;;;;;18.04;48.72;102481.63;101946;1328;61279;-82
2022/11/12 01:49:49;;;;;;;29.10;20.60;;;;;;;18.03;48.70;102481.14;101728;1338;72800;-83
2022/11/12 01:52:21;;;;;;;25.60;18.20;;;;;;;18.03;48.76;102483.45;101707;1334;74438;-82
2022/11/12 01:54:48;;;;;;;26.30;19.20;;;;;;;18.03;48.88;102485.23;101756;1332;61475;-81
2022/11/12 01:57:14;;;;;;;27.10;20.00;;;;;;;18.03;48.77;102485.40;101762;1336;61302;-81
2022/11/12 01:59:42;;;;;;;25.90;18.80;;;;;;;18.03;48.84;102484.86;101734;1332;61344;-82
2022/11/12 02:02:08;;;;;;;33.60;20.30;;;;;;;18.03;48.74;102485.39;101696;1334;74318;-82
2022/11/12 02:04:57;;;;;;;28.10;19.10;;;;;;;18.03;48.63;102486.12;101684;1337;61351;-81
2022/11/12 02:07:22;;;;;;;29.90;21.10;;;;;;;18.03;48.52;102482.40;101531;1337;61689;-82
2022/11/12 02:09:48;;;;;;;25.50;18.10;;;;;;;18.02;48.53;102480.63;101389;1338;61339;-82
2022/11/12 02:13:56;;;;;;;27.00;18.20;;;;;;;18.03;48.49;102475.45;101503;1344;61366;-82
2022/11/12 02:14:59;;;;;;;25.30;18.50;;;;;;;18.02;48.40;102472.97;101419;1344;61275;-81
2022/11/12 02:17:24;;;;;;;27.00;19.10;;;;;;;18.02;48.50;102473.50;101358;1340;61642;-82
2022/11/12 02:19:51;;;;;;;23.90;18.30;;;;;;;18.02;48.46;102473.50;101393;1338;61211;-82
2022/11/12 02:22:16;;;;;;;27.20;18.90;;;;;;;18.03;48.43;102473.66;101336;1339;61601;-83
2022/11/12 02:24:43;;;;;;;25.50;18.50;;;;;;;18.02;48.36;102470.46;101360;1340;61821;-83
2022/11/12 02:27:09;;;;;;;26.90;19.40;;;;;;;18.02;48.38;102464.95;101484;1340;61456;-83
2022/11/12 02:29:34;;;;;;;26.30;18.40;;;;;;;18.01;48.30;102466.40;101627;1341;61361;-82
2022/11/12 02:32:00;;;;;;;24.40;18.10;;;;;;;18.01;48.31;102470.15;101495;1342;72446;-82
2022/11/12 02:34:25;;;;;;;28.10;18.90;;;;;;;18.01;48.31;102468.35;101592;1337;61304;-83
2022/11/12 02:36:51;;;;;;;23.60;17.40;;;;;;;18.01;48.22;102466.60;101575;1340;61439;-82
2022/11/12 02:39:17;;;;;;;24.20;17.90;;;;;;;18.00;48.10;102473.91;101560;1338;61451;-81
2022/11/12 02:41:43;;;;;;;24.20;17.70;;;;;;;18.01;48.21;102471.96;101393;1344;61544;-82
2022/11/12 02:44:08;;;;;;;24.20;18.00;;;;;;;18.00;48.16;102473.20;101609;1340;61314;-82
2022/11/12 02:46:34;;;;;;;25.10;17.80;;;;;;;18.00;48.09;102470.54;101871;1335;74526;-82
2022/11/12 02:48:59;;;;;;;27.00;18.70;;;;;;;18.00;47.98;102471.80;101859;1333;61388;-83
2022/11/12 02:51:25;;;;;;;24.80;17.70;;;;;;;18.00;48.08;102476.60;101906;1329;61448;-81
2022/11/12 02:53:50;;;;;;;24.10;17.70;;;;;;;18.00;47.95;102483.73;101910;1329;61303;-82
2022/11/12 02:56:16;;;;;;;24.60;17.40;;;;;;;17.99;47.98;102482.14;101891;1332;61412;-82
2022/11/12 02:58:41;;;;;;;25.20;17.60;;;;;;;18.00;47.89;102484.63;101828;1332;75803;-82
2022/11/12 03:01:07;;;;;;;24.40;17.50;;;;;;;17.99;47.82;102486.96;101916;1335;61433;-82
2022/11/12 03:03:34;;;;;;;26.30;17.80;;;;;;;17.99;47.87;102485.19;101860;1332;61355;-81
2022/11/12 03:06:00;;;;;;;23.00;17.00;;;;;;;17.99;48.02;102488.04;101856;1322;61464;-82
2022/11/12 03:08:26;;;;;;;26.20;17.70;;;;;;;17.99;47.96;102490.37;101924;1330;61296;-82
2022/11/12 03:10:51;;;;;;;24.60;18.00;;;;;;;17.98;47.81;102486.28;101894;1332;61283;-82
2022/11/12 03:13:17;;;;;;;23.50;17.40;;;;;;;17.98;47.83;102483.44;101902;1330;61644;-81
2022/11/12 03:15:43;;;;;;;25.00;17.70;;;;;;;17.98;47.82;102485.94;101957;1332;61307;-81
2022/11/12 03:18:08;;;;;;;24.00;17.40;;;;;;;17.98;47.70;102483.27;101927;1328;72266;-81
2022/11/12 03:20:34;;;;;;;25.10;17.80;;;;;;;17.98;47.73;102487.36;101957;1333;61398;-81
2022/11/12 03:23:01;;;;;;;25.50;17.20;;;;;;;17.98;47.79;102490.05;101908;1329;61350;-82
2022/11/12 03:25:27;;;;;;;22.90;15.80;;;;;;;17.98;47.69;102488.79;101962;1331;61299;-82
2022/11/12 03:28:03;;;;;;;26.20;17.20;;;;;;;17.97;47.62;102490.58;101921;1330;61324;-82
2022/11/12 03:30:30;;;;;;;25.40;16.60;;;;;;;17.97;47.69;102496.47;101878;1332;75487;-81
2022/11/12 03:32:55;;;;;;;22.10;16.60;;;;;;;17.97;47.65;102500.91;101943;1334;61708;-82
2022/11/12 03:35:21;;;;;;;24.00;17.10;;;;;;;17.97;47.68;102503.77;101832;1331;61450;-82
2022/11/12 03:37:46;;;;;;;27.00;17.30;;;;;;;17.97;47.61;102503.96;101882;1322;61989;-82
2022/11/12 03:40:12;;;;;;;25.00;17.50;;;;;;;17.97;47.59;102506.27;101924;1328;61344;-82
2022/11/12 03:42:37;;;;;;;23.40;17.00;;;;;;;17.97;47.56;102510.37;101932;1329;61350;-81
2022/11/12 03:45:03;;;;;;;24.70;17.40;;;;;;;17.97;47.50;102517.67;101935;1329;61205;-82
2022/11/12 03:47:29;;;;;;;25.30;17.50;;;;;;;17.97;47.71;102511.09;101936;1332;61394;-82
2022/11/12 03:49:54;;;;;;;23.80;18.10;;;;;;;17.97;47.63;102511.83;101936;1329;61277;-82
2022/11/12 03:52:20;;;;;;;23.20;16.50;;;;;;;17.96;47.60;102514.33;101902;1330;61295;-82
2022/11/12 03:54:45;;;;;;;24.50;17.80;;;;;;;17.96;47.45;102514.69;101938;1336;61426;-82
2022/11/12 03:57:11;;;;;;;22.90;17.10;;;;;;;17.95;47.39;102515.59;101947;1323;61251;-82
2022/11/12 03:59:36;;;;;;;23.50;16.90;;;;;;;17.95;47.38;102516.68;101928;1333;61301;-83
2022/11/12 04:02:02;;;;;;;24.60;17.20;;;;;;;17.94;47.57;102517.59;101891;1329;61251;-82
2022/11/12 04:08:34;;;;;;;23.90;17.50;;;;;;;17.94;47.44;102522.04;101872;1332;61799;-82
2022/11/12 04:09:57;;;;;;;22.50;16.30;;;;;;;17.92;47.51;102525.45;101934;1328;61169;-82
2022/11/12 04:15:07;;;;;;;23.60;17.00;;;;;;;17.92;47.51;102518.34;101937;1327;74609;-82
2022/11/12 04:23:01;;;;;;;23.50;17.60;;;;;;;17.90;47.38;102517.50;101932;1328;73744;-81
2022/11/12 04:28:11;;;;;;;24.90;17.30;;;;;;;17.89;47.40;102521.62;101818;1332;61446;-82
2022/11/12 04:30:36;;;;;;;24.90;17.00;;;;;;;17.89;47.42;102521.44;101907;1328;61274;-81
2022/11/12 04:33:02;;;;;;;23.30;17.10;;;;;;;17.89;47.38;102518.59;101829;1331;61325;-82
2022/11/12 04:35:28;;;;;;;24.90;18.00;;;;;;;17.89;47.26;102523.40;101906;1326;61832;-82
2022/11/12 04:37:54;;;;;;;23.50;17.30;;;;;;;17.88;47.26;102522.36;101939;1329;61285;-81
2022/11/12 04:45:54;;;;;;;25.30;17.00;;;;;;;17.87;47.31;102516.16;101854;1328;73563;-83
2022/11/12 04:48:19;;;;;;;24.40;18.10;;;;;;;17.87;47.26;102517.41;101913;1328;61375;-82
2022/11/12 04:50:47;;;;;;;25.80;17.60;;;;;;;17.87;47.32;102519.91;101917;1328;61311;-82
2022/11/12 04:53:13;;;;;;;22.30;16.80;;;;;;;17.86;47.23;102522.96;101925;1332;61419;-81
2022/11/12 04:55:38;;;;;;;26.80;17.70;;;;;;;17.86;47.20;102521.54;101900;1335;61347;-81
2022/11/12 04:58:04;;;;;;;22.50;16.80;;;;;;;17.85;47.21;102521.55;101918;1322;61391;-82
2022/11/12 05:00:30;;;;;;;25.30;17.50;;;;;;;17.86;47.23;102521.70;101908;1328;61324;-82
2022/11/12 05:02:55;;;;;;;21.90;16.40;;;;;;;17.86;47.11;102521.35;101929;1329;61364;-82
2022/11/12 05:05:21;;;;;;;23.60;16.30;;;;;;;17.86;47.25;102525.10;101948;1332;61349;-82
2022/11/12 05:07:47;;;;;;;26.60;17.80;;;;;;;17.85;47.12;102528.50;101909;1332;72477;-82
2022/11/12 05:10:12;;;;;;;23.50;17.20;;;;;;;17.86;47.16;102529.74;101919;1328;61832;-81
2022/11/12 05:12:38;;;;;;;24.70;17.00;;;;;;;17.85;47.20;102530.83;101896;1335;61338;-82
2022/11/12 05:15:04;;;;;;;23.60;16.50;;;;;;;17.85;47.17;102533.85;101927;1334;61322;-81
2022/11/12 05:17:29;;;;;;;24.50;17.40;;;;;;;17.85;47.04;102533.86;101934;1329;61212;-83
2022/11/12 05:19:55;;;;;;;24.70;16.90;;;;;;;17.84;47.17;102537.08;101890;1335;61527;-82
2022/11/12 05:22:21;;;;;;;23.30;16.70;;;;;;;17.84;47.02;102539.23;101920;1330;61762;-82
2022/11/12 05:24:46;;;;;;;22.10;16.20;;;;;;;17.84;47.02;102536.73;101892;1322;61286;-82
2022/11/12 05:27:13;;;;;;;23.90;17.00;;;;;;;17.84;47.16;102542.44;101911;1331;61409;-82
2022/11/12 05:29:38;;;;;;;23.60;16.20;;;;;;;17.84;47.07;102545.11;101853;1335;61245;-82
2022/11/12 05:32:08;;;;;;;24.30;17.30;;;;;;;17.83;47.01;102548.69;101909;1328;61393;-83
2022/11/12 05:34:33;;;;;;;;;;;;;;;17.84;47.00;102552.24;101865;1331;61345;-82
2022/11/12 05:37:00;;;;;;;21.80;15.70;;;;;;;17.82;47.06;102553.02;101930;1329;61317;-82
2022/11/12 05:39:25;;;;;;;26.00;16.80;;;;;;;17.82;46.96;102555.15;101872;1329;61345;-82
2022/11/12 05:41:51;;;;;;;22.90;16.20;;;;;;;17.82;46.95;102562.28;101892;1330;61319;-82
2022/11/12 05:44:18;;;;;;;22.30;16.50;;;;;;;17.82;46.87;102567.61;101911;1330;61414;-82
2022/11/12 05:46:43;;;;;;;22.30;17.20;;;;;;;17.82;46.87;102565.13;101896;1328;61230;-82
2022/11/12 05:49:09;;;;;;;20.00;15.50;;;;;;;17.82;46.83;102569.05;101934;1328;61428;-82
2022/11/12 05:51:34;;;;;;;23.40;15.50;;;;;;;17.82;46.85;102572.60;101405;1331;707520;-81
2022/11/12 05:54:00;;;;;;;22.20;16.50;;;;;;;17.82;46.82;102573.14;101848;1329;61292;-81
2022/11/12 05:56:26;;;;;;;22.80;16.80;;;;;;;17.82;46.86;102573.31;101837;1325;61399;-81
2022/11/12 05:58:51;;;;;;;24.20;16.10;;;;;;;17.82;46.82;102575.98;101916;1332;61798;-82
2022/11/12 06:01:17;;;;;;;21.60;15.20;;;;;;;17.82;46.76;102579.36;101885;1330;61375;-82
2022/11/12 06:03:42;;;;;;;20.60;15.50;;;;;;;17.82;46.88;102581.85;101962;1334;61429;-82
2022/11/12 06:06:08;;;;;;;22.40;16.10;;;;;;;17.83;46.79;102586.83;101892;1328;75643;-82
2022/11/12 06:08:33;;;;;;;24.20;16.70;;;;;;;17.82;46.76;102591.30;101913;1328;63139;-82
2022/11/12 06:10:59;;;;;;;23.40;16.40;;;;;;;17.82;46.72;102596.29;101929;1328;61381;-82
2022/11/12 06:13:25;;;;;;;22.30;16.10;;;;;;;17.82;46.61;102594.15;101911;1332;61374;-82
2022/11/12 06:15:51;;;;;;;21.70;15.70;;;;;;;17.82;46.79;102595.59;101942;1328;61421;-82
2022/11/12 06:18:17;;;;;;;23.70;16.90;;;;;;;17.82;46.67;102597.52;101850;1328;74455;-82
2022/11/12 06:20:42;;;;;;;20.50;15.70;;;;;;;17.82;46.56;102603.77;101880;1334;60548;-82
2022/11/12 06:23:08;;;;;;;21.10;15.80;;;;;;;17.83;46.63;102609.63;101916;1329;61329;-82
2022/11/12 06:25:33;;;;;;;20.10;15.70;;;;;;;17.83;46.68;102609.80;101887;1331;59918;-81
2022/11/12 06:27:59;;;;;;;21.20;15.50;;;;;;;17.83;46.50;102611.03;101972;1331;61336;-82
2022/11/12 06:30:24;;;;;;;21.60;15.70;;;;;;;17.83;46.69;102608.54;101919;1328;75603;-81
2022/11/12 06:32:50;;;;;;;20.30;16.00;;;;;;;17.83;46.54;102608.73;101860;1328;61341;-81
2022/11/12 06:35:16;;;;;;;22.10;15.60;;;;;;;17.83;46.52;102607.29;101850;1323;61420;-82
2022/11/12 06:37:42;;;;;;;20.80;15.90;;;;;;;17.83;46.64;102612.27;101826;1331;62203;-82
2022/11/12 06:40:07;;;;;;;21.80;15.80;;;;;;;17.84;46.55;102613.86;101923;1328;62004;-81
2022/11/12 06:42:33;;;;;;;22.60;15.80;;;;;;;17.84;46.50;102616.71;101986;1322;61490;-81
2022/11/12 06:44:59;;;;;;;21.30;15.90;;;;;;;17.83;46.57;102617.27;101935;1331;61235;-82
2022/11/12 06:47:24;;;;;;;21.60;16.00;;;;;;;17.83;46.39;102619.75;101880;1332;61336;-82
2022/11/12 06:49:50;;;;;;;20.50;15.20;;;;;;;17.83;46.50;102618.86;101909;1322;61283;-82
2022/11/12 06:52:15;;;;;;;22.90;16.20;;;;;;;17.83;46.48;102616.55;101870;1331;61338;-82
2022/11/12 06:54:41;;;;;;;20.10;15.00;;;;;;;17.83;46.41;102616.55;101924;1328;61388;-82
2022/11/12 06:57:06;;;;;;;22.80;17.00;;;;;;;17.83;46.42;102619.59;101915;1331;61238;-81
2022/11/12 06:59:32;;;;;;;20.50;15.90;;;;;;;17.83;46.46;102624.21;101855;1331;61456;-82
2022/11/12 07:01:57;;;;;;;21.70;15.80;;;;;;;17.83;46.34;102626.70;101903;1334;61270;-81
2022/11/12 07:04:23;;;;;;;22.30;16.20;;;;;;;17.83;46.40;102627.23;101814;1325;61872;-82
2022/11/12 07:06:49;;;;;;;21.20;15.80;;;;;;;17.84;46.33;102624.54;101909;1326;61394;-82
2022/11/12 07:09:14;;;;;;;18.90;15.60;;;;;;;17.83;46.35;102627.07;101952;1331;61457;-81
2022/11/12 07:11:40;;;;;;;20.20;15.90;;;;;;;17.84;46.32;102626.50;101899;1329;61402;-81
2022/11/12 07:14:06;;;;;;;20.30;15.60;;;;;;;17.83;46.30;102626.35;101904;1330;61325;-82
2022/11/12 07:16:32;;;;;;;20.60;15.80;;;;;;;17.84;46.31;102623.65;101900;1328;61711;-82
2022/11/12 07:18:57;;;;;;;23.80;16.40;;;;;;;17.84;46.20;102620.98;101840;1333;61344;-82
2022/11/12 07:21:23;;;;;;;23.30;16.50;;;;;;;17.83;46.32;102623.67;101899;1328;61296;-82
2022/11/12 07:23:48;;;;;;;22.60;16.60;;;;;;;17.83;46.27;102621.02;101863;1335;61319;-82
2022/11/12 07:26:18;;;;;;;21.10;15.90;;;;;;;17.83;46.29;102622.60;101883;1331;61828;-82
2022/11/12 07:28:44;;;;;;;;;;;;;;;17.84;46.28;102622.95;101858;1331;75700;-82
2022/11/12 07:31:10;;;;;;;23.60;16.20;;;;;;;17.81;46.27;102621.42;101926;1329;61779;-82
2022/11/12 07:33:36;;;;;;;21.60;16.80;;;;;;;17.82;46.20;102617.30;101853;1329;61342;-82
2022/11/12 07:36:06;;;;;;;20.40;15.30;;;;;;;17.82;46.31;102614.64;101857;1328;61404;-82
2022/11/12 07:38:33;;;;;;;23.90;17.00;;;;;;;17.82;46.20;102615.87;101842;1328;75576;-81
2022/11/12 07:41:00;;;;;;;20.80;15.50;;;;;;;17.82;46.24;102611.60;101880;1323;61182;-82
2022/11/12 07:43:27;;;;;;;23.80;16.30;;;;;;;17.82;46.36;102609.99;101878;1331;61154;-82
2022/11/12 07:45:57;;;;;;;23.40;17.00;;;;;;;17.83;46.20;102617.63;101852;1331;73804;-82
2022/11/12 07:48:22;;;;;;;;;;;;;;;17.83;46.26;102619.58;101906;1332;74691;-81
2022/11/12 07:50:48;;;;;;;22.10;15.90;;;;;;;17.81;46.29;102618.21;101947;1328;61288;-81
2022/11/12 07:53:13;;;;;;;22.00;15.90;;;;;;;17.83;46.28;102619.78;101942;1329;61386;-82
2022/11/12 07:55:39;;;;;;;25.10;16.70;;;;;;;17.82;46.43;102620.33;101898;1329;61376;-82
2022/11/12 07:58:04;;;;;;;22.20;16.40;;;;;;;17.83;46.25;102622.61;101884;1331;61355;-82
2022/11/12 08:00:30;;;;;;;22.40;16.80;;;;;;;17.82;46.32;102625.84;101860;1332;61302;-82
2022/11/12 08:02:59;;;;;;;20.50;16.40;;;;;;;17.83;46.34;102624.05;101924;1336;61289;-81
2022/11/12 08:05:24;;;;;;;22.50;16.80;;;;;;;17.83;46.32;102627.60;101865;1331;61213;-81
2022/11/12 08:07:50;;;;;;;22.60;16.30;;;;;;;17.83;46.30;102625.63;101896;1329;61326;-81
2022/11/12 08:10:16;;;;;;;24.10;16.50;;;;;;;17.83;46.21;102630.45;101893;1331;61293;-81
2022/11/12 08:12:41;;;;;;;20.30;16.20;;;;;;;17.83;46.42;102626.88;101844;1328;61405;-81
2022/11/12 08:15:07;;;;;;;23.90;16.40;;;;;;;17.84;46.32;102631.85;101946;1326;61283;-83
2022/11/12 08:17:37;;;;;;;24.80;17.90;;;;;;;17.85;46.36;102630.76;101828;1331;61428;-82
2022/11/12 08:20:03;;;;;;;22.70;17.00;;;;;;;17.85;46.36;102632.36;101795;1331;73764;-82
2022/11/12 08:22:30;;;;;;;22.20;16.60;;;;;;;17.86;46.15;102638.73;101887;1331;61329;-81
2022/11/12 08:24:55;;;;;;;21.30;17.20;;;;;;;17.86;46.18;102646.21;101865;1328;61340;-81
2022/11/12 08:27:21;;;;;;;24.80;17.20;;;;;;;17.87;46.40;102640.66;101871;1326;61327;-82
2022/11/12 08:29:46;;;;;;;23.10;16.80;;;;;;;17.87;46.41;102641.90;101840;1332;61257;-82
2022/11/12 08:32:13;;;;;;;22.30;17.10;;;;;;;17.87;46.33;102638.51;101841;1328;62988;-81
2022/11/12 08:34:40;;;;;;;24.50;18.50;;;;;;;17.88;46.36;102639.91;101836;1332;61357;-80
2022/11/12 08:37:06;;;;;;;24.00;16.90;;;;;;;17.89;46.38;102643.98;101913;1329;61442;-81
2022/11/12 08:39:31;;;;;;;23.60;16.80;;;;;;;17.90;46.35;102645.23;101813;1331;61303;-81
2022/11/12 08:41:57;;;;;;;22.20;16.70;;;;;;;17.89;46.24;102648.97;101950;1336;61317;-82
2022/11/12 08:44:22;;;;;;;23.20;17.30;;;;;;;17.90;46.37;102652.88;101906;1328;74687;-82
2022/11/12 08:46:49;;;;;;;22.10;16.40;;;;;;;17.90;46.34;102659.27;101858;1328;61482;-82
2022/11/12 08:49:15;;;;;;;22.20;17.20;;;;;;;17.90;46.31;102651.09;101909;1328;61319;-82
2022/11/12 08:51:40;;;;;;;22.10;16.50;;;;;;;17.90;46.44;102649.31;101854;1331;61790;-81
2022/11/12 08:54:06;;;;;;;23.80;17.20;;;;;;;17.90;46.25;102650.91;101913;1331;61811;-81
2022/11/12 08:56:32;;;;;;;25.70;17.10;;;;;;;17.91;46.31;102655.00;101947;1331;61437;-81
2022/11/12 08:58:58;;;;;;;21.70;16.10;;;;;;;17.91;46.35;102650.36;101865;1336;61454;-82
2022/11/12 09:01:24;;;;;;;22.90;17.20;;;;;;;17.91;46.25;102652.15;101850;1335;61357;-82
2022/11/12 09:03:49;;;;;;;23.60;17.60;;;;;;;17.91;46.31;102645.55;101858;1332;61186;-82
2022/11/12 09:06:15;;;;;;;22.30;16.60;;;;;;;17.91;46.22;102649.47;101926;1322;61433;-82
2022/11/12 09:08:41;;;;;;;21.90;16.90;;;;;;;17.92;46.41;102647.86;101922;1329;61324;-82
2022/11/12 09:11:06;;;;;;;22.80;16.10;;;;;;;17.92;46.28;102645.17;101873;1329;61274;-82
2022/11/12 09:13:32;;;;;;;24.30;17.10;;;;;;;17.93;46.44;102640.16;101915;1331;61328;-82
2022/11/12 09:16:02;;;;;;;24.80;17.50;;;;;;;17.93;46.34;102638.37;101851;1331;61473;-82
2022/11/12 09:18:28;;;;;;;23.90;16.50;;;;;;;17.95;46.22;102642.80;101923;1331;74507;-82
2022/11/12 09:20:57;;;;;;;24.40;17.30;;;;;;;17.96;46.36;102638.50;101946;1328;61412;-82
2022/11/12 09:23:23;;;;;;;;;;;;;;;17.96;46.32;102633.67;101926;1332;61211;-82
2022/11/12 09:25:48;;;;;;;24.20;16.70;;;;;;;17.95;46.35;102632.65;101902;1328;61329;-82
2022/11/12 09:28:17;;;;;;;23.40;14.50;;;;;;;17.96;46.37;102633.33;101910;1331;61287;-81
2022/11/12 09:30:47;;;;;;;22.00;16.70;;;;;;;17.97;46.44;102634.02;101930;1332;61326;-81
2022/11/12 09:33:17;;;;;;;22.50;17.20;;;;;;;17.97;46.27;102628.30;101838;1331;61388;-82
2022/11/12 09:35:44;;;;;;;24.10;16.70;;;;;;;17.98;46.38;102628.46;101945;1336;73404;-82
2022/11/12 09:38:11;;;;;;;22.30;16.00;;;;;;;17.98;46.28;102627.57;101950;1330;75521;-82
2022/11/12 09:40:52;;;;;;;21.00;15.70;;;;;;;17.99;46.37;102634.30;101841;1329;61668;-82
2022/11/12 09:43:29;;;;;;;21.90;15.80;;;;;;;17.99;46.30;102639.09;101945;1328;61194;-83
2022/11/12 09:45:59;;;;;;;19.50;15.10;;;;;;;18.00;46.48;102636.95;101931;1328;72603;-82
2022/11/12 09:48:28;;;;;;;23.70;16.40;;;;;;;18.01;46.38;102630.15;101844;1332;75598;-81
2022/11/12 09:50:59;;;;;;;21.30;16.20;;;;;;;18.01;46.34;102624.44;101945;1328;61273;-82
2022/11/12 09:53:31;;;;;;;19.40;15.00;;;;;;;18.02;46.20;102626.73;101912;1327;61399;-83
2022/11/12 09:55:57;;;;;;;19.50;15.40;;;;;;;18.02;46.31;102630.64;101921;1331;72595;-82
2022/11/12 09:58:23;;;;;;;20.60;15.60;;;;;;;18.02;46.42;102620.66;101918;1328;61309;-82
2022/11/12 10:00:57;;;;;;;21.30;16.00;;;;;;;18.03;46.32;102624.56;101921;1329;61273;-82
2022/11/12 10:03:35;;;;;;;23.40;17.00;;;;;;;18.04;46.19;102617.06;102001;1328;61163;-81
2022/11/12 10:06:04;;;;;;;20.80;16.10;;;;;;;18.04;46.30;102614.90;101909;1331;74010;-82
2022/11/12 10:08:37;;;;;;;21.60;16.00;;;;;;;18.04;46.19;102612.08;101845;1328;74660;-81
2022/11/12 10:11:08;;;;;;;23.50;16.50;;;;;;;18.03;46.27;102612.80;101856;1331;61308;-82
2022/11/12 10:14:02;;;;;;;24.00;15.30;;;;;;;18.04;46.24;102612.41;101816;1336;61207;-81
2022/11/12 10:16:46;;;;;;;21.80;15.60;;;;;;;18.04;46.17;102613.67;101939;1328;73471;-81
2022/11/12 10:19:44;;;;;;;22.10;16.30;;;;;;;18.04;46.21;102611.88;101943;1328;75716;-81
2022/11/12 10:22:32;;;;;;;20.50;15.60;;;;;;;18.05;46.17;102607.59;101894;1328;61226;-81
2022/11/12 10:24:58;;;;;;;20.30;14.30;;;;;;;18.04;46.10;102605.45;101958;1333;61311;-82
2022/11/12 10:27:27;;;;;;;22.20;15.10;;;;;;;18.05;46.21;102605.98;101940;1329;61319;-82
2022/11/12 10:30:04;;;;;;;21.00;15.40;;;;;;;18.05;46.17;102600.27;101962;1322;74449;-82
2022/11/12 10:32:29;;;;;;;20.40;15.10;;;;;;;18.05;46.26;102594.58;101921;1329;61607;-82
2022/11/12 10:34:55;;;;;;;21.20;15.30;;;;;;;18.05;46.03;102592.07;101882;1336;61349;-82
2022/11/12 10:37:27;;;;;;;21.80;15.00;;;;;;;18.05;46.16;102593.14;101862;1331;61260;-82
2022/11/12 10:39:53;;;;;;;20.00;15.30;;;;;;;18.05;46.11;102591.00;101885;1331;75407;-81
2022/11/12 10:42:19;;;;;;;19.50;14.70;;;;;;;18.04;46.10;102594.60;101879;1328;61389;-81
2022/11/12 10:44:45;;;;;;;21.10;15.20;;;;;;;18.04;46.17;102596.02;101878;1336;61296;-81
2022/11/12 10:47:27;;;;;;;19.00;14.70;;;;;;;18.04;46.21;102598.16;101907;1331;61381;-82
2022/11/12 10:50:09;;;;;;;18.90;14.70;;;;;;;18.04;46.00;102602.27;101969;1335;74665;-82
2022/11/12 10:52:35;;;;;;;19.80;14.40;;;;;;;18.03;46.08;102607.11;101940;1331;61292;-82
2022/11/12 10:55:15;;;;;;;22.90;15.40;;;;;;;18.03;46.01;102613.16;101916;1331;61928;-83
2022/11/12 10:57:43;;;;;;;19.80;14.30;;;;;;;18.02;45.98;102606.95;101930;1328;73521;-83
2022/11/12 11:00:11;;;;;;;19.50;14.50;;;;;;;18.01;45.93;102605.92;101924;1322;75758;-83
2022/11/12 11:02:49;;;;;;;20.60;15.10;;;;;;;18.02;45.92;102604.30;101925;1329;61328;-82
2022/11/12 11:05:39;;;;;;;20.00;14.20;;;;;;;18.01;45.98;102597.91;101798;1335;61318;-82
2022/11/12 11:08:04;;;;;;;20.40;14.40;;;;;;;18.00;45.99;102597.38;101812;1332;72722;-82
2022/11/12 11:10:32;;;;;;;18.30;14.70;;;;;;;18.01;45.97;102595.76;101665;1330;59393;-82
2022/11/12 11:13:17;;;;;;;19.70;14.90;;;;;;;18.01;46.03;102597.17;101779;1330;61214;-82
2022/11/12 11:16:00;;;;;;;21.00;14.00;;;;;;;18.02;46.02;102600.20;101923;1328;61417;-82
2022/11/12 11:18:26;;;;;;;19.40;14.20;;;;;;;18.01;45.99;102599.66;101835;1337;72631;-82
2022/11/12 11:21:15;;;;;;;20.20;14.30;;;;;;;18.01;45.81;102601.44;101803;1331;74460;-82
2022/11/12 11:24:09;;;;;;;18.60;13.20;;;;;;;18.02;45.87;102600.01;101834;1328;61238;-82